Silt, CO (81652)

2:20 AM MDT on July 30, 2016 (GMT -0600)
Pickett Ln | | Change Station

Elev 5489 ft 39.55 °N, 107.64 °W | Updated 14 minutes ago

Clear
Clear
60.3 °F
Feels Like 60.3 °F
N
0.0
Wind Variable Wind from SE

Today
High -- | Low -- °F
--% Chance of Precip.
Yesterday
High -- | Low -- °F
Precip. -- in
Pressure 29.82 in
Visibility 10.0 miles
Clouds Clear
Dew Point 42 °F
Humidity 51%
Rainfall 0.00 in
Snow Depth Not available.
6:08 AM 8:24 PM
Waning Crescent, 15% visible
METAR KRIL 300753Z AUTO 08004KT 10SM CLR 18/04 A3007 RMK AO2 SLP097 T01830039
Pressure 29.82 in
Visibility 10.0 miles
Clouds Clear
Dew Point 42 °F
Humidity 51%
Rainfall 0.00 in
Snow Depth Not available.
6:08 AM 8:24 PM
Waning Crescent, 15% visible
METAR KRIL 300753Z AUTO 08004KT 10SM CLR 18/04 A3007 RMK AO2 SLP097 T01830039

10-Day Weather Forecast

Almanac

Astronomy

Jul. 30, 2016 Rise Set
Actual Time
Civil Twilight
Nautical Twilight
Astronomical Twilight
Moon
Length of Visible Light
Length of Day
Tomorrow will be .
, % of the Moon is Illuminated

Today's Extremes

State Highs State Lows

Community

WunderPhotos

Upload Photos

1,928,508 photos uploaded!

WunderBlog® & News

Nearby

Air Quality

  Air Quality AQ Index Pollutant
Not available.

Snow Depth

Station Depth Elevation

Earthquake Activity

City Distance Mag. Time & Date
Minimum magnitude displayed is 2.5.

Coastal Water Temperatures

Place Temperature

Stations

Nearby Weather Stations

Station Location Temp. Windchill Dew Point Humidity Wind Precip. Elev Updated Type
                   

Watches & Warnings

There are currently no watches in effect.